sensor_id;sensor_type;location;lat;lon;timestamp;P1;durP1;ratioP1;P2;durP2;ratioP2
56136;SDS011;42008;52.934;5.884;2024-02-26T00:00:23;38.47;;;23.73;;
56136;SDS011;42008;52.934;5.884;2024-02-26T00:02:49;37.27;;;23.37;;
56136;SDS011;42008;52.934;5.884;2024-02-26T00:05:15;37.60;;;23.20;;
56136;SDS011;42008;52.934;5.884;2024-02-26T00:07:41;39.70;;;23.93;;
56136;SDS011;42008;52.934;5.884;2024-02-26T00:10:07;36.70;;;23.20;;
56136;SDS011;42008;52.934;5.884;2024-02-26T00:12:34;39.50;;;23.60;;
56136;SDS011;42008;52.934;5.884;2024-02-26T00:15:00;41.77;;;24.10;;
56136;SDS011;42008;52.934;5.884;2024-02-26T00:17:26;38.97;;;23.43;;
56136;SDS011;42008;52.934;5.884;2024-02-26T00:19:52;42.87;;;25.00;;
56136;SDS011;42008;52.934;5.884;2024-02-26T00:22:18;40.60;;;23.57;;
56136;SDS011;42008;52.934;5.884;2024-02-26T00:24:44;38.23;;;23.13;;
56136;SDS011;42008;52.934;5.884;2024-02-26T00:27:10;41.23;;;24.37;;
56136;SDS011;42008;52.934;5.884;2024-02-26T00:29:36;36.33;;;22.97;;
56136;SDS011;42008;52.934;5.884;2024-02-26T00:32:02;39.00;;;23.17;;
56136;SDS011;42008;52.934;5.884;2024-02-26T00:34:28;39.33;;;22.50;;
56136;SDS011;42008;52.934;5.884;2024-02-26T00:36:54;44.13;;;21.97;;
56136;SDS011;42008;52.934;5.884;2024-02-26T00:39:21;38.40;;;22.23;;
56136;SDS011;42008;52.934;5.884;2024-02-26T00:41:47;35.10;;;21.07;;
56136;SDS011;42008;52.934;5.884;2024-02-26T00:44:13;36.43;;;22.67;;
56136;SDS011;42008;52.934;5.884;2024-02-26T00:46:39;37.27;;;22.13;;
56136;SDS011;42008;52.934;5.884;2024-02-26T00:49:05;36.80;;;22.57;;
56136;SDS011;42008;52.934;5.884;2024-02-26T00:51:31;38.80;;;22.43;;
56136;SDS011;42008;52.934;5.884;2024-02-26T00:53:57;38.77;;;22.60;;
56136;SDS011;42008;52.934;5.884;2024-02-26T00:56:23;38.33;;;22.67;;
56136;SDS011;42008;52.934;5.884;2024-02-26T00:58:49;39.00;;;23.63;;
56136;SDS011;42008;52.934;5.884;2024-02-26T01:01:15;40.27;;;23.40;;
56136;SDS011;42008;52.934;5.884;2024-02-26T01:03:41;40.67;;;23.63;;
56136;SDS011;42008;52.934;5.884;2024-02-26T01:06:07;46.27;;;24.53;;
56136;SDS011;42008;52.934;5.884;2024-02-26T01:08:33;42.43;;;23.77;;
56136;SDS011;42008;52.934;5.884;2024-02-26T01:11:00;43.33;;;24.03;;
56136;SDS011;42008;52.934;5.884;2024-02-26T01:13:26;43.10;;;24.73;;
56136;SDS011;42008;52.934;5.884;2024-02-26T01:15:52;45.17;;;24.60;;
56136;SDS011;42008;52.934;5.884;2024-02-26T01:18:18;43.43;;;23.90;;
56136;SDS011;42008;52.934;5.884;2024-02-26T01:20:44;42.27;;;23.33;;
56136;SDS011;42008;52.934;5.884;2024-02-26T01:23:11;45.27;;;25.00;;
56136;SDS011;42008;52.934;5.884;2024-02-26T01:25:38;44.67;;;23.40;;
56136;SDS011;42008;52.934;5.884;2024-02-26T01:28:04;51.30;;;26.03;;
56136;SDS011;42008;52.934;5.884;2024-02-26T01:30:30;46.07;;;25.13;;
56136;SDS011;42008;52.934;5.884;2024-02-26T01:32:56;46.47;;;24.90;;
56136;SDS011;42008;52.934;5.884;2024-02-26T01:35:22;48.23;;;26.00;;
56136;SDS011;42008;52.934;5.884;2024-02-26T01:37:49;50.00;;;25.80;;
56136;SDS011;42008;52.934;5.884;2024-02-26T01:40:15;50.43;;;26.90;;
56136;SDS011;42008;52.934;5.884;2024-02-26T01:42:44;53.40;;;26.97;;
56136;SDS011;42008;52.934;5.884;2024-02-26T01:45:15;50.53;;;26.93;;
56136;SDS011;42008;52.934;5.884;2024-02-26T01:47:47;51.57;;;27.17;;
56136;SDS011;42008;52.934;5.884;2024-02-26T01:50:13;51.63;;;27.17;;
56136;SDS011;42008;52.934;5.884;2024-02-26T01:52:39;56.80;;;28.37;;
56136;SDS011;42008;52.934;5.884;2024-02-26T01:55:05;58.77;;;29.43;;
56136;SDS011;42008;52.934;5.884;2024-02-26T01:57:31;59.13;;;29.80;;
56136;SDS011;42008;52.934;5.884;2024-02-26T01:59:58;62.90;;;31.10;;
56136;SDS011;42008;52.934;5.884;2024-02-26T02:02:24;62.27;;;32.47;;
56136;SDS011;42008;52.934;5.884;2024-02-26T02:04:50;62.77;;;32.57;;
56136;SDS011;42008;52.934;5.884;2024-02-26T02:07:16;65.20;;;32.97;;
56136;SDS011;42008;52.934;5.884;2024-02-26T02:09:42;65.57;;;33.07;;
56136;SDS011;42008;52.934;5.884;2024-02-26T02:12:09;67.57;;;35.57;;
56136;SDS011;42008;52.934;5.884;2024-02-26T02:14:35;71.13;;;35.07;;
56136;SDS011;42008;52.934;5.884;2024-02-26T02:17:01;71.17;;;35.83;;
56136;SDS011;42008;52.934;5.884;2024-02-26T02:19:27;70.80;;;35.93;;
56136;SDS011;42008;52.934;5.884;2024-02-26T02:21:53;71.73;;;37.77;;
56136;SDS011;42008;52.934;5.884;2024-02-26T02:24:19;65.23;;;35.97;;
56136;SDS011;42008;52.934;5.884;2024-02-26T02:26:45;73.07;;;37.37;;
56136;SDS011;42008;52.934;5.884;2024-02-26T02:29:11;65.27;;;35.27;;
56136;SDS011;42008;52.934;5.884;2024-02-26T02:31:37;66.93;;;35.97;;
56136;SDS011;42008;52.934;5.884;2024-02-26T02:34:03;66.53;;;36.93;;
56136;SDS011;42008;52.934;5.884;2024-02-26T02:36:30;65.00;;;36.07;;
56136;SDS011;42008;52.934;5.884;2024-02-26T02:38:56;62.90;;;35.60;;
56136;SDS011;42008;52.934;5.884;2024-02-26T02:41:22;63.33;;;35.50;;
56136;SDS011;42008;52.934;5.884;2024-02-26T02:43:48;61.60;;;35.33;;
56136;SDS011;42008;52.934;5.884;2024-02-26T02:46:14;58.57;;;33.10;;
56136;SDS011;42008;52.934;5.884;2024-02-26T02:48:41;60.30;;;34.07;;
56136;SDS011;42008;52.934;5.884;2024-02-26T02:51:08;57.83;;;33.87;;
56136;SDS011;42008;52.934;5.884;2024-02-26T02:53:34;58.17;;;34.33;;
56136;SDS011;42008;52.934;5.884;2024-02-26T02:56:00;54.87;;;32.40;;
56136;SDS011;42008;52.934;5.884;2024-02-26T02:58:26;55.17;;;32.50;;
56136;SDS011;42008;52.934;5.884;2024-02-26T03:00:52;53.23;;;33.10;;
56136;SDS011;42008;52.934;5.884;2024-02-26T03:03:20;52.70;;;30.63;;
56136;SDS011;42008;52.934;5.884;2024-02-26T03:05:49;52.83;;;30.33;;
56136;SDS011;42008;52.934;5.884;2024-02-26T03:08:15;48.77;;;29.93;;
56136;SDS011;42008;52.934;5.884;2024-02-26T03:10:41;44.17;;;27.80;;
56136;SDS011;42008;52.934;5.884;2024-02-26T03:13:08;44.53;;;28.77;;
56136;SDS011;42008;52.934;5.884;2024-02-26T03:15:34;47.67;;;28.13;;
56136;SDS011;42008;52.934;5.884;2024-02-26T03:18:00;40.43;;;26.13;;
56136;SDS011;42008;52.934;5.884;2024-02-26T03:20:26;38.57;;;26.07;;
56136;SDS011;42008;52.934;5.884;2024-02-26T03:22:52;40.53;;;24.80;;
56136;SDS011;42008;52.934;5.884;2024-02-26T03:25:18;37.13;;;23.73;;
56136;SDS011;42008;52.934;5.884;2024-02-26T03:27:44;38.40;;;24.90;;
56136;SDS011;42008;52.934;5.884;2024-02-26T03:30:10;32.10;;;22.83;;
56136;SDS011;42008;52.934;5.884;2024-02-26T03:32:36;34.53;;;24.00;;
56136;SDS011;42008;52.934;5.884;2024-02-26T03:35:02;31.00;;;20.90;;
56136;SDS011;42008;52.934;5.884;2024-02-26T03:37:29;29.10;;;19.70;;
56136;SDS011;42008;52.934;5.884;2024-02-26T03:39:55;27.43;;;20.73;;
56136;SDS011;42008;52.934;5.884;2024-02-26T03:42:22;28.67;;;20.40;;
56136;SDS011;42008;52.934;5.884;2024-02-26T03:44:48;25.07;;;19.17;;
56136;SDS011;42008;52.934;5.884;2024-02-26T03:47:14;29.87;;;18.73;;
56136;SDS011;42008;52.934;5.884;2024-02-26T03:49:40;28.40;;;19.00;;
56136;SDS011;42008;52.934;5.884;2024-02-26T03:52:06;24.43;;;18.20;;
56136;SDS011;42008;52.934;5.884;2024-02-26T03:54:32;26.27;;;17.60;;
56136;SDS011;42008;52.934;5.884;2024-02-26T03:56:58;26.30;;;17.20;;
56136;SDS011;42008;52.934;5.884;2024-02-26T03:59:24;24.20;;;17.53;;
56136;SDS011;42008;52.934;5.884;2024-02-26T04:01:50;24.90;;;16.03;;
56136;SDS011;42008;52.934;5.884;2024-02-26T04:04:16;22.97;;;16.70;;
56136;SDS011;42008;52.934;5.884;2024-02-26T04:06:45;20.93;;;15.53;;
56136;SDS011;42008;52.934;5.884;2024-02-26T04:09:13;21.03;;;15.33;;
56136;SDS011;42008;52.934;5.884;2024-02-26T04:11:39;18.67;;;13.97;;
56136;SDS011;42008;52.934;5.884;2024-02-26T04:14:05;20.30;;;14.50;;
56136;SDS011;42008;52.934;5.884;2024-02-26T04:16:34;19.17;;;13.73;;
56136;SDS011;42008;52.934;5.884;2024-02-26T04:19:00;18.97;;;14.20;;
56136;SDS011;42008;52.934;5.884;2024-02-26T04:21:26;19.33;;;14.07;;
56136;SDS011;42008;52.934;5.884;2024-02-26T04:23:52;18.87;;;13.63;;
56136;SDS011;42008;52.934;5.884;2024-02-26T04:26:21;18.63;;;13.20;;
56136;SDS011;42008;52.934;5.884;2024-02-26T04:28:47;18.03;;;13.90;;
56136;SDS011;42008;52.934;5.884;2024-02-26T04:31:13;20.93;;;13.20;;
56136;SDS011;42008;52.934;5.884;2024-02-26T04:33:39;17.20;;;14.27;;
56136;SDS011;42008;52.934;5.884;2024-02-26T04:36:11;17.27;;;13.13;;
56136;SDS011;42008;52.934;5.884;2024-02-26T04:38:37;18.20;;;13.80;;
56136;SDS011;42008;52.934;5.884;2024-02-26T04:41:03;20.03;;;12.80;;
56136;SDS011;42008;52.934;5.884;2024-02-26T04:43:30;16.80;;;12.47;;
56136;SDS011;42008;52.934;5.884;2024-02-26T04:45:56;17.70;;;12.40;;
56136;SDS011;42008;52.934;5.884;2024-02-26T04:48:22;14.40;;;11.27;;
56136;SDS011;42008;52.934;5.884;2024-02-26T04:50:48;14.77;;;10.63;;
56136;SDS011;42008;52.934;5.884;2024-02-26T04:53:14;15.47;;;11.50;;
56136;SDS011;42008;52.934;5.884;2024-02-26T04:55:40;14.13;;;10.80;;
56136;SDS011;42008;52.934;5.884;2024-02-26T04:58:06;12.47;;;8.73;;
56136;SDS011;42008;52.934;5.884;2024-02-26T05:00:32;14.13;;;10.30;;
56136;SDS011;42008;52.934;5.884;2024-02-26T05:02:58;13.33;;;9.17;;
56136;SDS011;42008;52.934;5.884;2024-02-26T05:05:24;12.93;;;8.87;;
56136;SDS011;42008;52.934;5.884;2024-02-26T05:07:50;11.40;;;8.23;;
56136;SDS011;42008;52.934;5.884;2024-02-26T05:10:16;20.97;;;8.87;;
56136;SDS011;42008;52.934;5.884;2024-02-26T05:12:42;13.00;;;8.63;;
56136;SDS011;42008;52.934;5.884;2024-02-26T05:15:09;13.13;;;8.33;;
56136;SDS011;42008;52.934;5.884;2024-02-26T05:17:35;16.27;;;8.53;;
56136;SDS011;42008;52.934;5.884;2024-02-26T05:20:01;15.73;;;8.43;;
56136;SDS011;42008;52.934;5.884;2024-02-26T05:22:27;12.43;;;9.00;;
56136;SDS011;42008;52.934;5.884;2024-02-26T05:24:53;16.13;;;8.70;;
56136;SDS011;42008;52.934;5.884;2024-02-26T05:27:19;11.77;;;8.17;;
56136;SDS011;42008;52.934;5.884;2024-02-26T05:29:45;13.63;;;8.00;;
56136;SDS011;42008;52.934;5.884;2024-02-26T05:32:11;14.63;;;7.77;;
56136;SDS011;42008;52.934;5.884;2024-02-26T05:34:37;11.40;;;7.80;;
56136;SDS011;42008;52.934;5.884;2024-02-26T05:37:03;10.30;;;7.23;;
56136;SDS011;42008;52.934;5.884;2024-02-26T05:39:29;10.97;;;7.23;;
56136;SDS011;42008;52.934;5.884;2024-02-26T05:41:55;11.63;;;7.37;;
56136;SDS011;42008;52.934;5.884;2024-02-26T05:44:22;9.60;;;7.13;;
56136;SDS011;42008;52.934;5.884;2024-02-26T05:46:48;9.60;;;7.20;;
56136;SDS011;42008;52.934;5.884;2024-02-26T05:49:14;14.00;;;7.73;;
56136;SDS011;42008;52.934;5.884;2024-02-26T05:51:40;11.63;;;7.60;;
56136;SDS011;42008;52.934;5.884;2024-02-26T05:54:06;13.73;;;7.23;;
56136;SDS011;42008;52.934;5.884;2024-02-26T05:56:33;12.47;;;7.50;;
56136;SDS011;42008;52.934;5.884;2024-02-26T05:58:59;12.50;;;7.70;;
56136;SDS011;42008;52.934;5.884;2024-02-26T06:01:25;12.10;;;7.60;;
56136;SDS011;42008;52.934;5.884;2024-02-26T06:03:51;9.37;;;7.57;;
56136;SDS011;42008;52.934;5.884;2024-02-26T06:06:17;11.13;;;7.90;;
56136;SDS011;42008;52.934;5.884;2024-02-26T06:08:43;11.43;;;7.40;;
56136;SDS011;42008;52.934;5.884;2024-02-26T06:11:09;11.47;;;8.00;;
56136;SDS011;42008;52.934;5.884;2024-02-26T06:13:35;10.47;;;7.90;;
56136;SDS011;42008;52.934;5.884;2024-02-26T06:16:01;9.57;;;7.30;;
56136;SDS011;42008;52.934;5.884;2024-02-26T06:18:28;11.80;;;7.80;;
56136;SDS011;42008;52.934;5.884;2024-02-26T06:20:53;13.20;;;7.80;;
56136;SDS011;42008;52.934;5.884;2024-02-26T06:23:20;11.27;;;7.53;;
56136;SDS011;42008;52.934;5.884;2024-02-26T06:25:45;11.33;;;8.13;;
56136;SDS011;42008;52.934;5.884;2024-02-26T06:28:13;11.40;;;7.93;;
56136;SDS011;42008;52.934;5.884;2024-02-26T06:30:39;10.70;;;7.57;;
56136;SDS011;42008;52.934;5.884;2024-02-26T06:33:05;9.73;;;7.40;;
56136;SDS011;42008;52.934;5.884;2024-02-26T06:35:31;13.53;;;7.27;;
56136;SDS011;42008;52.934;5.884;2024-02-26T06:37:57;11.77;;;6.80;;
56136;SDS011;42008;52.934;5.884;2024-02-26T06:40:23;9.60;;;6.53;;
56136;SDS011;42008;52.934;5.884;2024-02-26T06:42:50;13.63;;;7.87;;
56136;SDS011;42008;52.934;5.884;2024-02-26T06:45:16;12.70;;;7.20;;
56136;SDS011;42008;52.934;5.884;2024-02-26T06:47:44;9.37;;;7.30;;
56136;SDS011;42008;52.934;5.884;2024-02-26T06:50:11;11.30;;;7.37;;
56136;SDS011;42008;52.934;5.884;2024-02-26T06:52:38;9.13;;;6.47;;
56136;SDS011;42008;52.934;5.884;2024-02-26T06:55:04;7.60;;;6.60;;
56136;SDS011;42008;52.934;5.884;2024-02-26T06:57:33;9.60;;;5.93;;
56136;SDS011;42008;52.934;5.884;2024-02-26T06:59:59;9.03;;;6.03;;
56136;SDS011;42008;52.934;5.884;2024-02-26T07:02:25;8.60;;;6.23;;
56136;SDS011;42008;52.934;5.884;2024-02-26T07:04:51;9.40;;;6.03;;
56136;SDS011;42008;52.934;5.884;2024-02-26T07:07:17;10.67;;;6.37;;
56136;SDS011;42008;52.934;5.884;2024-02-26T07:09:43;9.33;;;5.90;;
56136;SDS011;42008;52.934;5.884;2024-02-26T07:12:10;8.53;;;5.97;;
56136;SDS011;42008;52.934;5.884;2024-02-26T07:14:35;8.00;;;5.87;;
56136;SDS011;42008;52.934;5.884;2024-02-26T07:17:02;8.33;;;6.40;;
56136;SDS011;42008;52.934;5.884;2024-02-26T07:19:29;8.73;;;5.63;;
56136;SDS011;42008;52.934;5.884;2024-02-26T07:21:55;8.50;;;6.80;;
56136;SDS011;42008;52.934;5.884;2024-02-26T07:24:20;9.20;;;6.00;;
56136;SDS011;42008;52.934;5.884;2024-02-26T07:26:46;13.27;;;6.57;;
56136;SDS011;42008;52.934;5.884;2024-02-26T07:29:12;8.40;;;5.67;;
56136;SDS011;42008;52.934;5.884;2024-02-26T07:31:38;8.93;;;5.00;;
56136;SDS011;42008;52.934;5.884;2024-02-26T07:34:07;7.13;;;5.00;;
56136;SDS011;42008;52.934;5.884;2024-02-26T07:36:33;7.60;;;5.30;;
56136;SDS011;42008;52.934;5.884;2024-02-26T07:38:59;8.83;;;6.00;;
56136;SDS011;42008;52.934;5.884;2024-02-26T07:41:26;7.40;;;5.50;;
56136;SDS011;42008;52.934;5.884;2024-02-26T07:43:52;13.87;;;6.03;;
56136;SDS011;42008;52.934;5.884;2024-02-26T07:46:18;8.43;;;4.97;;
56136;SDS011;42008;52.934;5.884;2024-02-26T07:48:44;9.70;;;5.27;;
56136;SDS011;42008;52.934;5.884;2024-02-26T07:51:12;6.80;;;4.80;;
56136;SDS011;42008;52.934;5.884;2024-02-26T07:53:39;10.37;;;5.07;;
56136;SDS011;42008;52.934;5.884;2024-02-26T07:56:05;6.70;;;4.87;;
56136;SDS011;42008;52.934;5.884;2024-02-26T07:58:34;5.63;;;4.77;;
56136;SDS011;42008;52.934;5.884;2024-02-26T08:01:00;10.20;;;5.63;;
56136;SDS011;42008;52.934;5.884;2024-02-26T08:03:26;6.83;;;4.87;;
56136;SDS011;42008;52.934;5.884;2024-02-26T08:05:52;6.23;;;4.77;;
56136;SDS011;42008;52.934;5.884;2024-02-26T08:08:18;6.03;;;4.57;;
56136;SDS011;42008;52.934;5.884;2024-02-26T08:10:44;8.67;;;4.20;;
56136;SDS011;42008;52.934;5.884;2024-02-26T08:13:10;7.80;;;4.10;;
56136;SDS011;42008;52.934;5.884;2024-02-26T08:15:36;6.10;;;4.47;;
56136;SDS011;42008;52.934;5.884;2024-02-26T08:18:03;7.83;;;4.50;;
56136;SDS011;42008;52.934;5.884;2024-02-26T08:20:29;6.07;;;4.13;;
56136;SDS011;42008;52.934;5.884;2024-02-26T08:22:56;6.57;;;4.20;;
56136;SDS011;42008;52.934;5.884;2024-02-26T08:25:22;7.57;;;4.30;;
56136;SDS011;42008;52.934;5.884;2024-02-26T08:27:48;6.43;;;4.00;;
56136;SDS011;42008;52.934;5.884;2024-02-26T08:30:15;10.47;;;4.30;;
56136;SDS011;42008;52.934;5.884;2024-02-26T08:32:42;7.38;;;4.00;;
56136;SDS011;42008;52.934;5.884;2024-02-26T08:35:09;6.20;;;4.00;;
56136;SDS011;42008;52.934;5.884;2024-02-26T08:37:35;5.67;;;3.57;;
56136;SDS011;42008;52.934;5.884;2024-02-26T08:40:01;6.80;;;3.70;;
56136;SDS011;42008;52.934;5.884;2024-02-26T08:42:29;6.47;;;3.97;;
56136;SDS011;42008;52.934;5.884;2024-02-26T08:44:55;6.93;;;4.03;;
56136;SDS011;42008;52.934;5.884;2024-02-26T08:47:21;9.77;;;4.20;;
56136;SDS011;42008;52.934;5.884;2024-02-26T08:49:47;6.70;;;4.00;;
56136;SDS011;42008;52.934;5.884;2024-02-26T08:52:13;6.70;;;4.10;;
56136;SDS011;42008;52.934;5.884;2024-02-26T08:54:39;6.90;;;3.47;;
56136;SDS011;42008;52.934;5.884;2024-02-26T08:57:05;5.77;;;3.60;;
56136;SDS011;42008;52.934;5.884;2024-02-26T08:59:31;5.87;;;3.33;;
56136;SDS011;42008;52.934;5.884;2024-02-26T09:01:57;6.07;;;3.13;;
56136;SDS011;42008;52.934;5.884;2024-02-26T09:04:23;7.03;;;3.00;;
56136;SDS011;42008;52.934;5.884;2024-02-26T09:06:50;7.30;;;3.20;;
56136;SDS011;42008;52.934;5.884;2024-02-26T09:09:16;6.43;;;3.00;;
56136;SDS011;42008;52.934;5.884;2024-02-26T09:11:42;7.27;;;3.10;;
56136;SDS011;42008;52.934;5.884;2024-02-26T09:14:08;6.27;;;2.93;;
56136;SDS011;42008;52.934;5.884;2024-02-26T09:16:34;6.13;;;2.70;;
56136;SDS011;42008;52.934;5.884;2024-02-26T09:19:01;6.00;;;2.83;;
56136;SDS011;42008;52.934;5.884;2024-02-26T09:21:28;6.13;;;2.43;;
56136;SDS011;42008;52.934;5.884;2024-02-26T09:23:54;5.63;;;2.70;;
56136;SDS011;42008;52.934;5.884;2024-02-26T09:26:20;6.10;;;2.23;;
56136;SDS011;42008;52.934;5.884;2024-02-26T09:28:46;3.60;;;2.20;;
56136;SDS011;42008;52.934;5.884;2024-02-26T09:31:12;6.37;;;2.47;;
56136;SDS011;42008;52.934;5.884;2024-02-26T09:33:41;5.07;;;2.43;;
56136;SDS011;42008;52.934;5.884;2024-02-26T09:36:07;5.47;;;2.40;;
56136;SDS011;42008;52.934;5.884;2024-02-26T09:38:35;7.10;;;2.30;;
56136;SDS011;42008;52.934;5.884;2024-02-26T09:41:03;6.20;;;2.53;;
56136;SDS011;42008;52.934;5.884;2024-02-26T09:43:32;3.80;;;2.03;;
56136;SDS011;42008;52.934;5.884;2024-02-26T09:45:59;3.67;;;1.97;;
56136;SDS011;42008;52.934;5.884;2024-02-26T09:48:26;4.70;;;2.60;;
56136;SDS011;42008;52.934;5.884;2024-02-26T09:50:52;7.10;;;2.57;;
56136;SDS011;42008;52.934;5.884;2024-02-26T09:53:18;6.83;;;2.47;;
56136;SDS011;42008;52.934;5.884;2024-02-26T09:55:47;4.27;;;2.37;;
56136;SDS011;42008;52.934;5.884;2024-02-26T09:58:13;6.33;;;2.40;;
56136;SDS011;42008;52.934;5.884;2024-02-26T10:00:43;5.00;;;2.30;;
56136;SDS011;42008;52.934;5.884;2024-02-26T10:03:13;6.43;;;3.07;;
56136;SDS011;42008;52.934;5.884;2024-02-26T10:05:40;4.40;;;2.40;;
56136;SDS011;42008;52.934;5.884;2024-02-26T10:08:08;5.17;;;2.40;;
56136;SDS011;42008;52.934;5.884;2024-02-26T10:10:34;4.27;;;2.30;;
56136;SDS011;42008;52.934;5.884;2024-02-26T10:13:00;5.37;;;2.23;;
56136;SDS011;42008;52.934;5.884;2024-02-26T10:15:27;6.13;;;2.70;;
56136;SDS011;42008;52.934;5.884;2024-02-26T10:17:53;4.57;;;2.47;;
56136;SDS011;42008;52.934;5.884;2024-02-26T10:20:19;5.03;;;2.20;;
56136;SDS011;42008;52.934;5.884;2024-02-26T10:22:49;4.40;;;2.10;;
56136;SDS011;42008;52.934;5.884;2024-02-26T10:25:17;7.73;;;2.30;;
56136;SDS011;42008;52.934;5.884;2024-02-26T10:27:44;7.30;;;2.10;;
56136;SDS011;42008;52.934;5.884;2024-02-26T10:30:18;5.10;;;2.30;;
56136;SDS011;42008;52.934;5.884;2024-02-26T10:32:44;5.20;;;1.90;;
56136;SDS011;42008;52.934;5.884;2024-02-26T10:35:14;8.40;;;2.30;;
56136;SDS011;42008;52.934;5.884;2024-02-26T10:37:40;5.97;;;2.20;;
56136;SDS011;42008;52.934;5.884;2024-02-26T10:40:10;3.70;;;2.00;;
56136;SDS011;42008;52.934;5.884;2024-02-26T10:42:36;7.70;;;2.10;;
56136;SDS011;42008;52.934;5.884;2024-02-26T10:45:04;4.93;;;2.10;;
56136;SDS011;42008;52.934;5.884;2024-02-26T10:47:30;7.73;;;2.20;;
56136;SDS011;42008;52.934;5.884;2024-02-26T10:49:58;6.03;;;2.27;;
56136;SDS011;42008;52.934;5.884;2024-02-26T10:52:24;5.57;;;2.37;;
56136;SDS011;42008;52.934;5.884;2024-02-26T10:54:53;5.27;;;2.17;;
56136;SDS011;42008;52.934;5.884;2024-02-26T10:57:19;5.53;;;2.10;;
56136;SDS011;42008;52.934;5.884;2024-02-26T10:59:46;4.87;;;2.23;;
56136;SDS011;42008;52.934;5.884;2024-02-26T11:02:14;6.10;;;2.30;;
56136;SDS011;42008;52.934;5.884;2024-02-26T11:04:40;5.67;;;2.20;;
56136;SDS011;42008;52.934;5.884;2024-02-26T11:07:07;5.07;;;2.13;;
56136;SDS011;42008;52.934;5.884;2024-02-26T11:09:33;6.53;;;2.40;;
56136;SDS011;42008;52.934;5.884;2024-02-26T11:12:01;5.23;;;2.20;;
56136;SDS011;42008;52.934;5.884;2024-02-26T11:14:29;6.80;;;2.33;;
56136;SDS011;42008;52.934;5.884;2024-02-26T11:16:56;7.17;;;2.70;;
56136;SDS011;42008;52.934;5.884;2024-02-26T11:19:23;4.70;;;2.27;;
56136;SDS011;42008;52.934;5.884;2024-02-26T11:21:50;6.03;;;2.20;;
56136;SDS011;42008;52.934;5.884;2024-02-26T11:24:16;5.73;;;2.03;;
56136;SDS011;42008;52.934;5.884;2024-02-26T11:26:52;5.37;;;1.90;;
56136;SDS011;42008;52.934;5.884;2024-02-26T11:29:37;5.13;;;1.90;;
56136;SDS011;42008;52.934;5.884;2024-02-26T11:32:04;6.10;;;2.00;;
56136;SDS011;42008;52.934;5.884;2024-02-26T11:34:30;5.23;;;1.80;;
56136;SDS011;42008;52.934;5.884;2024-02-26T11:36:56;3.80;;;2.00;;
56136;SDS011;42008;52.934;5.884;2024-02-26T11:39:23;4.70;;;1.80;;
56136;SDS011;42008;52.934;5.884;2024-02-26T11:41:49;7.10;;;1.77;;
56136;SDS011;42008;52.934;5.884;2024-02-26T11:44:17;7.57;;;2.77;;
56136;SDS011;42008;52.934;5.884;2024-02-26T11:46:54;5.07;;;1.70;;
56136;SDS011;42008;52.934;5.884;2024-02-26T11:51:54;3.83;;;1.80;;
56136;SDS011;42008;52.934;5.884;2024-02-26T11:59:47;7.50;;;2.83;;
56136;SDS011;42008;52.934;5.884;2024-02-26T12:04:59;6.20;;;2.23;;
56136;SDS011;42008;52.934;5.884;2024-02-26T12:07:25;5.13;;;2.67;;
56136;SDS011;42008;52.934;5.884;2024-02-26T12:09:51;8.97;;;2.60;;
56136;SDS011;42008;52.934;5.884;2024-02-26T12:12:17;7.17;;;2.57;;
56136;SDS011;42008;52.934;5.884;2024-02-26T12:14:51;7.57;;;3.37;;
56136;SDS011;42008;52.934;5.884;2024-02-26T12:17:25;6.80;;;3.00;;
56136;SDS011;42008;52.934;5.884;2024-02-26T12:19:52;5.87;;;2.90;;
56136;SDS011;42008;52.934;5.884;2024-02-26T12:22:19;7.83;;;3.37;;
56136;SDS011;42008;52.934;5.884;2024-02-26T12:24:45;5.27;;;3.33;;
56136;SDS011;42008;52.934;5.884;2024-02-26T12:27:11;6.57;;;3.40;;
56136;SDS011;42008;52.934;5.884;2024-02-26T12:29:38;8.43;;;3.80;;
56136;SDS011;42008;52.934;5.884;2024-02-26T12:32:04;6.83;;;3.80;;
56136;SDS011;42008;52.934;5.884;2024-02-26T12:34:31;8.67;;;4.07;;
56136;SDS011;42008;52.934;5.884;2024-02-26T12:36:57;10.60;;;5.13;;
56136;SDS011;42008;52.934;5.884;2024-02-26T12:39:23;10.47;;;4.30;;
56136;SDS011;42008;52.934;5.884;2024-02-26T12:41:49;11.43;;;4.10;;
56136;SDS011;42008;52.934;5.884;2024-02-26T12:44:16;10.07;;;4.43;;
56136;SDS011;42008;52.934;5.884;2024-02-26T12:46:42;12.37;;;4.60;;
56136;SDS011;42008;52.934;5.884;2024-02-26T12:49:08;9.00;;;4.40;;
56136;SDS011;42008;52.934;5.884;2024-02-26T12:51:40;9.30;;;4.00;;
56136;SDS011;42008;52.934;5.884;2024-02-26T12:54:06;7.30;;;4.20;;
56136;SDS011;42008;52.934;5.884;2024-02-26T12:56:33;9.70;;;4.47;;
56136;SDS011;42008;52.934;5.884;2024-02-26T12:58:59;7.97;;;4.80;;
56136;SDS011;42008;52.934;5.884;2024-02-26T13:01:26;9.40;;;5.00;;
56136;SDS011;42008;52.934;5.884;2024-02-26T13:03:52;9.77;;;4.63;;
56136;SDS011;42008;52.934;5.884;2024-02-26T13:06:18;5.97;;;4.30;;
56136;SDS011;42008;52.934;5.884;2024-02-26T13:08:46;8.23;;;4.60;;
56136;SDS011;42008;52.934;5.884;2024-02-26T13:11:13;9.50;;;4.27;;
56136;SDS011;42008;52.934;5.884;2024-02-26T13:13:39;9.47;;;4.00;;
56136;SDS011;42008;52.934;5.884;2024-02-26T13:16:05;11.13;;;4.40;;
56136;SDS011;42008;52.934;5.884;2024-02-26T13:18:33;11.67;;;4.17;;
56136;SDS011;42008;52.934;5.884;2024-02-26T13:21:07;11.93;;;4.70;;
56136;SDS011;42008;52.934;5.884;2024-02-26T13:23:34;9.43;;;4.90;;
56136;SDS011;42008;52.934;5.884;2024-02-26T13:26:00;11.60;;;4.97;;
56136;SDS011;42008;52.934;5.884;2024-02-26T13:28:26;11.17;;;5.00;;
56136;SDS011;42008;52.934;5.884;2024-02-26T13:30:55;9.33;;;5.70;;
56136;SDS011;42008;52.934;5.884;2024-02-26T13:33:22;10.13;;;4.70;;
56136;SDS011;42008;52.934;5.884;2024-02-26T13:35:48;7.47;;;5.20;;
56136;SDS011;42008;52.934;5.884;2024-02-26T13:38:14;7.00;;;4.37;;
56136;SDS011;42008;52.934;5.884;2024-02-26T13:40:40;15.03;;;5.10;;
56136;SDS011;42008;52.934;5.884;2024-02-26T13:43:06;7.93;;;4.67;;
56136;SDS011;42008;52.934;5.884;2024-02-26T13:45:36;7.77;;;4.30;;
56136;SDS011;42008;52.934;5.884;2024-02-26T13:48:03;9.00;;;4.87;;
56136;SDS011;42008;52.934;5.884;2024-02-26T13:50:29;8.47;;;4.67;;
56136;SDS011;42008;52.934;5.884;2024-02-26T13:52:56;7.77;;;4.30;;
56136;SDS011;42008;52.934;5.884;2024-02-26T13:55:23;8.37;;;4.63;;
56136;SDS011;42008;52.934;5.884;2024-02-26T13:57:51;9.70;;;4.20;;
56136;SDS011;42008;52.934;5.884;2024-02-26T14:00:19;9.60;;;4.60;;
56136;SDS011;42008;52.934;5.884;2024-02-26T14:02:45;9.33;;;4.37;;
56136;SDS011;42008;52.934;5.884;2024-02-26T14:05:11;10.97;;;5.47;;
56136;SDS011;42008;52.934;5.884;2024-02-26T14:07:37;12.23;;;5.00;;
56136;SDS011;42008;52.934;5.884;2024-02-26T14:10:03;11.73;;;5.13;;
56136;SDS011;42008;52.934;5.884;2024-02-26T14:12:30;10.80;;;5.03;;
56136;SDS011;42008;52.934;5.884;2024-02-26T14:14:56;10.57;;;5.27;;
56136;SDS011;42008;52.934;5.884;2024-02-26T14:17:25;10.10;;;5.23;;
56136;SDS011;42008;52.934;5.884;2024-02-26T14:19:51;8.13;;;3.93;;
56136;SDS011;42008;52.934;5.884;2024-02-26T14:22:17;7.93;;;4.13;;
56136;SDS011;42008;52.934;5.884;2024-02-26T14:24:43;8.17;;;4.40;;
56136;SDS011;42008;52.934;5.884;2024-02-26T14:27:09;8.20;;;3.73;;
56136;SDS011;42008;52.934;5.884;2024-02-26T14:29:39;7.77;;;4.53;;
56136;SDS011;42008;52.934;5.884;2024-02-26T14:32:07;7.60;;;4.50;;
56136;SDS011;42008;52.934;5.884;2024-02-26T14:34:33;6.83;;;4.40;;
56136;SDS011;42008;52.934;5.884;2024-02-26T14:36:59;9.73;;;4.50;;
56136;SDS011;42008;52.934;5.884;2024-02-26T14:39:25;8.20;;;4.50;;
56136;SDS011;42008;52.934;5.884;2024-02-26T14:41:51;9.00;;;4.87;;